createdAt,value
2016-06-01T00:00:03.819Z,950.2
2016-06-01T00:00:13.835Z,950.2
2016-06-01T00:00:23.694Z,950.2
2016-06-01T00:00:33.819Z,950.2
2016-06-01T00:00:43.819Z,950.3
2016-06-01T00:00:53.666Z,950.3
2016-06-01T00:01:03.822Z,950.3
2016-06-01T00:01:13.510Z,950.3
2016-06-01T00:01:23.838Z,950.2
2016-06-01T00:01:38.010Z,950.2
2016-06-01T00:01:49.684Z,950.2
2016-06-01T00:02:01.059Z,950.3
2016-06-01T00:02:12.575Z,950.2
2016-06-01T00:02:24.184Z,950.3
2016-06-01T00:02:35.731Z,950.3
2016-06-01T00:02:47.391Z,950.4
2016-06-01T00:02:58.891Z,950.3
2016-06-01T00:03:10.266Z,950.3
2016-06-01T00:03:16.719Z,950.3
2016-06-01T00:03:26.547Z,950.3
2016-06-01T00:03:36.687Z,950.4
2016-06-01T00:03:46.658Z,950.3
2016-06-01T00:03:56.830Z,950.3
2016-06-01T00:04:06.689Z,950.3
2016-06-01T00:04:16.814Z,950.4
2016-06-01T00:04:26.830Z,950.4
2016-06-01T00:04:36.502Z,950.4
2016-06-01T00:04:46.349Z,950.3
2016-06-01T00:04:56.677Z,950.3
2016-06-01T00:05:06.802Z,950.3
2016-06-01T00:05:16.505Z,950.3
2016-06-01T00:05:26.802Z,950.4
2016-06-01T00:05:36.786Z,950.4
2016-06-01T00:05:46.788Z,950.3
2016-06-01T00:05:56.507Z,950.5
2016-06-01T00:06:06.773Z,950.3
2016-06-01T00:06:16.773Z,950.4
2016-06-01T00:06:26.819Z,950.3
2016-06-01T00:06:36.773Z,950.4
2016-06-01T00:06:46.776Z,950.4
2016-06-01T00:06:56.791Z,950.4
2016-06-01T00:07:06.776Z,950.4
2016-06-01T00:07:16.479Z,950.4
2016-06-01T00:07:26.791Z,950.5
2016-06-01T00:07:36.760Z,950.4
2016-06-01T00:07:46.779Z,950.5
2016-06-01T00:07:56.810Z,950.5
2016-06-01T00:08:06.747Z,950.4
2016-06-01T00:08:16.763Z,950.5
2016-06-01T00:08:27.388Z,950.6
2016-06-01T00:08:36.825Z,950.5
2016-06-01T00:08:47.656Z,950.5
2016-06-01T00:08:57.390Z,950.6
2016-06-01T00:09:06.765Z,950.5
2016-06-01T00:09:18.359Z,950.5
2016-06-01T00:09:26.640Z,950.6
2016-06-01T00:09:36.781Z,950.6
2016-06-01T00:09:46.602Z,950.6
2016-06-01T00:09:56.759Z,950.6
2016-06-01T00:10:06.634Z,950.6
2016-06-01T00:10:16.743Z,950.6
2016-06-01T00:10:26.774Z,950.6
2016-06-01T00:10:36.727Z,950.6
2016-06-01T00:10:46.772Z,950.6
2016-06-01T00:10:56.756Z,950.7
2016-06-01T00:11:06.772Z,950.7
2016-06-01T00:11:16.772Z,950.6
2016-06-01T00:11:26.772Z,950.7
2016-06-01T00:11:36.756Z,950.6
2016-06-01T00:11:46.644Z,950.7
2016-06-01T00:11:56.644Z,950.7
2016-06-01T00:12:06.800Z,950.7
2016-06-01T00:12:16.784Z,950.6
2016-06-01T00:12:26.784Z,950.7
2016-06-01T00:12:36.753Z,950.7
2016-06-01T00:12:46.658Z,950.8
2016-06-01T00:12:56.799Z,950.7
2016-06-01T00:13:06.799Z,950.7
2016-06-01T00:13:16.799Z,950.7
2016-06-01T00:13:26.643Z,950.8
2016-06-01T00:13:36.799Z,950.8
2016-06-01T00:13:46.811Z,950.7
2016-06-01T00:13:56.671Z,950.7
2016-06-01T00:14:06.796Z,950.7
2016-06-01T00:14:16.655Z,950.8
2016-06-01T00:14:26.671Z,950.8
2016-06-01T00:14:36.796Z,950.7
2016-06-01T00:14:46.640Z,950.8
2016-06-01T00:14:56.827Z,950.7
2016-06-01T00:15:06.499Z,950.8
2016-06-01T00:15:16.655Z,950.8
2016-06-01T00:15:26.812Z,950.8
2016-06-01T00:15:36.780Z,950.8
2016-06-01T00:15:46.807Z,950.9
2016-06-01T00:15:56.666Z,950.8
2016-06-01T00:16:06.651Z,950.8
2016-06-01T00:16:16.635Z,950.8
2016-06-01T00:16:26.823Z,950.8
2016-06-01T00:16:36.791Z,950.8
2016-06-01T00:16:46.804Z,950.9
2016-06-01T00:16:56.804Z,950.9
2016-06-01T00:17:06.804Z,950.8
2016-06-01T00:17:16.648Z,950.9
2016-06-01T00:17:26.804Z,951
2016-06-01T00:17:36.789Z,950.9
2016-06-01T00:17:46.801Z,950.9
2016-06-01T00:17:56.863Z,950.9
2016-06-01T00:18:06.785Z,951
2016-06-01T00:18:16.644Z,950.9
2016-06-01T00:18:26.644Z,951
2016-06-01T00:18:36.801Z,950.9
2016-06-01T00:18:46.656Z,950.9
2016-06-01T00:18:56.656Z,950.9
2016-06-01T00:19:06.656Z,951
2016-06-01T00:19:16.625Z,951
2016-06-01T00:19:26.781Z,951
2016-06-01T00:19:36.781Z,951
2016-06-01T00:19:46.789Z,950.9
2016-06-01T00:19:58.071Z,951
2016-06-01T00:20:06.774Z,951
2016-06-01T00:20:16.633Z,951
2016-06-01T00:20:26.774Z,951
2016-06-01T00:20:36.618Z,951
2016-06-01T00:20:46.780Z,951.1
2016-06-01T00:20:56.780Z,951
2016-06-01T00:21:06.780Z,951.1
2016-06-01T00:21:16.608Z,951
2016-06-01T00:21:26.624Z,951
2016-06-01T00:21:36.764Z,951
2016-06-01T00:21:46.755Z,951.1
2016-06-01T00:21:56.614Z,951
2016-06-01T00:22:06.473Z,951
2016-06-01T00:22:16.598Z,951
2016-06-01T00:22:26.755Z,951.1
2016-06-01T00:22:36.755Z,951.1
2016-06-01T00:22:46.745Z,951
2016-06-01T00:22:56.761Z,951
2016-06-01T00:23:06.448Z,951.1
2016-06-01T00:23:16.620Z,951.1
2016-06-01T00:23:27.120Z,951
2016-06-01T00:23:36.370Z,951
2016-06-01T00:23:46.307Z,951.1
2016-06-01T00:23:57.783Z,951.1
2016-06-01T00:24:06.799Z,951.1
2016-06-01T00:24:17.221Z,951.1
2016-06-01T00:24:26.736Z,951.1
2016-06-01T00:24:37.205Z,951.1
2016-06-01T00:24:46.739Z,951.1
2016-06-01T00:24:56.771Z,951.2
2016-06-01T00:25:06.833Z,951.1
2016-06-01T00:25:16.739Z,951.1
2016-06-01T00:25:26.771Z,951.1
2016-06-01T00:25:36.661Z,951.1
2016-06-01T00:25:46.618Z,951.2
2016-06-01T00:25:56.743Z,951.1
2016-06-01T00:26:06.556Z,951.2
2016-06-01T00:26:16.712Z,951.2
2016-06-01T00:26:26.743Z,951.3
2016-06-01T00:26:36.696Z,951.2
2016-06-01T00:26:46.716Z,951.1
2016-06-01T00:26:56.716Z,951.1
2016-06-01T00:27:06.404Z,951.2
2016-06-01T00:27:16.544Z,951.1
2016-06-01T00:27:26.716Z,951.2
2016-06-01T00:27:36.544Z,951.2
2016-06-01T00:27:46.704Z,951.2
2016-06-01T00:27:56.751Z,951.2
2016-06-01T00:28:06.533Z,951.2
2016-06-01T00:28:16.689Z,951.2
2016-06-01T00:28:26.689Z,951.1
2016-06-01T00:28:36.673Z,951.1
2016-06-01T00:28:46.677Z,951.1
2016-06-01T00:28:56.708Z,951.2
2016-06-01T00:29:06.537Z,951.2
2016-06-01T00:29:16.537Z,951.2
2016-06-01T00:29:26.693Z,951.1
2016-06-01T00:29:36.521Z,951.2
2016-06-01T00:29:46.521Z,951.1
2016-06-01T00:29:56.680Z,951.1
2016-06-01T00:30:06.665Z,951.1
2016-06-01T00:30:16.649Z,951.1
2016-06-01T00:30:26.680Z,951.2
2016-06-01T00:30:36.649Z,951.1
2016-06-01T00:30:46.649Z,951.2
2016-06-01T00:30:56.527Z,951.1
2016-06-01T00:31:06.511Z,951.1
2016-06-01T00:31:16.652Z,951.1
2016-06-01T00:31:26.652Z,951.1
2016-06-01T00:31:36.636Z,951
2016-06-01T00:31:46.511Z,951
2016-06-01T00:31:56.671Z,951.2
2016-06-01T00:32:06.483Z,951
2016-06-01T00:32:16.639Z,951.1
2016-06-01T00:32:26.639Z,951.1
2016-06-01T00:32:36.467Z,951.1
2016-06-01T00:32:46.483Z,951.1
2016-06-01T00:32:56.502Z,951.2
2016-06-01T00:33:06.486Z,951.1
2016-06-01T00:33:16.611Z,951.1
2016-06-01T00:33:26.470Z,951.1
2016-06-01T00:33:36.627Z,951
2016-06-01T00:33:46.611Z,951.1
2016-06-01T00:33:56.630Z,951.1
2016-06-01T00:34:06.458Z,951.1
2016-06-01T00:34:16.614Z,951.1
2016-06-01T00:34:26.614Z,951.1
2016-06-01T00:34:36.458Z,951.1
2016-06-01T00:34:46.598Z,951.1
2016-06-01T00:34:56.617Z,951.1
2016-06-01T00:35:06.445Z,951.1
2016-06-01T00:35:16.617Z,951.1
2016-06-01T00:35:26.586Z,951.2
2016-06-01T00:35:36.445Z,951.1
2016-06-01T00:35:46.461Z,951.1
2016-06-01T00:35:56.433Z,951.1
2016-06-01T00:36:06.276Z,951.1
2016-06-01T00:36:16.589Z,951.1
2016-06-01T00:36:26.604Z,951.1
2016-06-01T00:36:36.589Z,951.2
2016-06-01T00:36:46.417Z,951.3
2016-06-01T00:36:56.436Z,951.2
2016-06-01T00:37:06.404Z,951.1
2016-06-01T00:37:16.576Z,951.2
2016-06-01T00:37:26.576Z,951.2
2016-06-01T00:37:36.576Z,951.2
2016-06-01T00:37:46.545Z,951.2
2016-06-01T00:37:56.422Z,951.2
2016-06-01T00:38:06.563Z,951.2
2016-06-01T00:38:16.547Z,951.1
2016-06-01T00:38:27.234Z,951.2
2016-06-01T00:38:38.297Z,951.2
2016-06-01T00:38:46.781Z,951.2
2016-06-01T00:38:57.769Z,951.2
2016-06-01T00:39:07.222Z,951.2
2016-06-01T00:39:16.644Z,951.2
2016-06-01T00:39:26.441Z,951.3
2016-06-01T00:39:36.784Z,951.2
2016-06-01T00:39:46.394Z,951.3
2016-06-01T00:39:56.553Z,951.2
2016-06-01T00:40:06.522Z,951.2
2016-06-01T00:40:16.522Z,951.3
2016-06-01T00:40:26.381Z,951.3
2016-06-01T00:40:36.522Z,951.3
2016-06-01T00:40:46.365Z,951.4
2016-06-01T00:40:56.540Z,951.3
2016-06-01T00:41:06.509Z,951.2
2016-06-01T00:41:16.525Z,951.2
2016-06-01T00:41:26.384Z,951.3
2016-06-01T00:41:36.493Z,951.3
2016-06-01T00:41:46.540Z,951.3
2016-06-01T00:41:56.386Z,951.3
2016-06-01T00:42:06.495Z,951.3
2016-06-01T00:42:16.511Z,951.3
2016-06-01T00:42:26.355Z,951.3
2016-06-01T00:42:36.495Z,951.4
2016-06-01T00:42:46.339Z,951.3
2016-06-01T00:42:56.514Z,951.4
2016-06-01T00:43:06.498Z,951.5
2016-06-01T00:43:16.483Z,951.3
2016-06-01T00:43:26.483Z,951.3
2016-06-01T00:43:36.514Z,951.3
2016-06-01T00:43:46.327Z,951.4
2016-06-01T00:43:56.500Z,951.3
2016-06-01T00:44:06.485Z,951.4
2016-06-01T00:44:16.469Z,951.5
2016-06-01T00:44:26.329Z,951.3
2016-06-01T00:44:36.485Z,951.5
2016-06-01T00:44:46.172Z,951.5
2016-06-01T00:44:56.316Z,951.4
2016-06-01T00:45:06.472Z,951.3
2016-06-01T00:45:16.332Z,951.5
2016-06-01T00:45:26.457Z,951.5
2016-06-01T00:45:36.316Z,951.4
2016-06-01T00:45:46.457Z,951.4
2016-06-01T00:45:56.163Z,951.5
2016-06-01T00:46:06.460Z,951.5
2016-06-01T00:46:16.444Z,951.6
2016-06-01T00:46:26.428Z,951.6
2016-06-01T00:46:36.460Z,951.5
2016-06-01T00:46:46.272Z,951.5
2016-06-01T00:46:56.446Z,951.5
2016-06-01T00:47:06.274Z,951.6
2016-06-01T00:47:16.446Z,951.6
2016-06-01T00:47:26.290Z,951.6
2016-06-01T00:47:36.430Z,951.6
2016-06-01T00:47:46.118Z,951.6
2016-06-01T00:47:56.418Z,951.6
2016-06-01T00:48:06.449Z,951.6
2016-06-01T00:48:16.402Z,951.5
2016-06-01T00:48:26.277Z,951.5
2016-06-01T00:48:36.433Z,951.6
2016-06-01T00:48:46.246Z,951.6
2016-06-01T00:48:56.421Z,951.7
2016-06-01T00:49:06.249Z,951.7
2016-06-01T00:49:16.280Z,951.6
2016-06-01T00:49:26.249Z,951.7
2016-06-01T00:49:36.405Z,951.7
2016-06-01T00:49:46.264Z,951.7
2016-06-01T00:49:56.408Z,951.6
2016-06-01T00:50:06.392Z,951.7
2016-06-01T00:50:16.392Z,951.7
2016-06-01T00:50:26.377Z,951.7
2016-06-01T00:50:36.236Z,951.7
2016-06-01T00:50:46.408Z,951.7
2016-06-01T00:50:56.379Z,951.7
2016-06-01T00:51:06.394Z,951.8
2016-06-01T00:51:16.223Z,951.7
2016-06-01T00:51:26.223Z,951.8
2016-06-01T00:51:36.379Z,951.6
2016-06-01T00:51:46.394Z,951.7
2016-06-01T00:51:56.226Z,951.8
2016-06-01T00:52:06.366Z,951.8
2016-06-01T00:52:16.366Z,951.8
2016-06-01T00:52:26.351Z,951.7
2016-06-01T00:52:36.366Z,951.8
2016-06-01T00:52:46.226Z,951.8
2016-06-01T00:52:56.338Z,951.8
2016-06-01T00:53:06.369Z,951.8
2016-06-01T00:53:16.229Z,951.8
2016-06-01T00:53:26.307Z,951.8
2016-06-01T00:53:37.119Z,951.8
2016-06-01T00:53:47.135Z,951.9
2016-06-01T00:53:56.699Z,951.9
2016-06-01T00:54:06.231Z,951.7
2016-06-01T00:54:16.668Z,951.8
2016-06-01T00:54:27.871Z,951.8
2016-06-01T00:54:36.324Z,951.9
2016-06-01T00:54:46.356Z,951.8
2016-06-01T00:54:56.187Z,951.9
2016-06-01T00:55:06.359Z,951.8
2016-06-01T00:55:16.171Z,951.9
2016-06-01T00:55:26.312Z,951.8
2016-06-01T00:55:36.327Z,951.8
2016-06-01T00:55:46.312Z,951.8
2016-06-01T00:55:56.174Z,951.9
2016-06-01T00:56:06.330Z,951.9
2016-06-01T00:56:16.315Z,951.8
2016-06-01T00:56:26.315Z,951.8
2016-06-01T00:56:36.143Z,951.8
2016-06-01T00:56:46.033Z,951.8
2016-06-01T00:56:56.160Z,951.8
2016-06-01T00:57:06.285Z,951.9
2016-06-01T00:57:16.160Z,951.8
2016-06-01T00:57:26.145Z,951.8
2016-06-01T00:57:36.270Z,951.9
2016-06-01T00:57:46.160Z,951.9
2016-06-01T00:57:56.288Z,951.9
2016-06-01T00:58:05.960Z,951.9
2016-06-01T00:58:16.304Z,951.9
2016-06-01T00:58:26.273Z,951.9
2016-06-01T00:58:36.132Z,951.8
2016-06-01T00:58:46.132Z,951.8
2016-06-01T00:58:56.120Z,951.9
2016-06-01T00:59:06.276Z,951.9
2016-06-01T00:59:16.291Z,951.8
2016-06-01T00:59:26.260Z,951.8
2016-06-01T00:59:36.276Z,951.8
2016-06-01T00:59:46.291Z,951.9
2016-06-01T00:59:56.262Z,951.8
2016-06-01T01:00:06.262Z,951.9
2016-06-01T01:00:16.247Z,951.8
2016-06-01T01:00:26.247Z,951.9
2016-06-01T01:00:36.262Z,951.8
2016-06-01T01:00:46.247Z,951.8
2016-06-01T01:00:55.937Z,951.9
2016-06-01T01:01:06.234Z,951.8
2016-06-01T01:01:16.250Z,951.9
2016-06-01T01:01:26.093Z,951.8
2016-06-01T01:01:36.250Z,951.9
2016-06-01T01:01:46.250Z,951.9
2016-06-01T01:01:56.081Z,951.8
2016-06-01T01:02:06.221Z,952
2016-06-01T01:02:16.237Z,951.8
2016-06-01T01:02:26.221Z,951.9
2016-06-01T01:02:35.940Z,951.9
2016-06-01T01:02:46.221Z,951.8
2016-06-01T01:02:55.943Z,951.9
2016-06-01T01:03:06.209Z,951.8
2016-06-01T01:03:16.224Z,951.9
2016-06-01T01:03:26.052Z,951.8
2016-06-01T01:03:36.193Z,951.9
2016-06-01T01:03:46.068Z,951.8
2016-06-01T01:03:56.211Z,951.8
2016-06-01T01:04:06.195Z,951.9
2016-06-01T01:04:16.211Z,951.8
2016-06-01T01:04:25.742Z,951.9
2016-06-01T01:04:36.195Z,951.9
2016-06-01T01:04:46.054Z,952
2016-06-01T01:04:56.042Z,951.9
2016-06-01T01:05:06.198Z,952
2016-06-01T01:05:15.886Z,951.9
2016-06-01T01:05:26.182Z,951.9
2016-06-01T01:05:36.182Z,951.9
2016-06-01T01:05:46.182Z,951.9
2016-06-01T01:05:56.184Z,951.9
2016-06-01T01:06:06.028Z,952
2016-06-01T01:06:16.169Z,952
2016-06-01T01:06:26.184Z,951.8
2016-06-01T01:06:36.153Z,952
2016-06-01T01:06:46.013Z,952
2016-06-01T01:06:56.172Z,952
2016-06-01T01:07:06.016Z,952
2016-06-01T01:07:15.859Z,951.9
2016-06-01T01:07:26.000Z,952
2016-06-01T01:07:36.156Z,952
2016-06-01T01:07:46.156Z,952
2016-06-01T01:07:56.144Z,952
2016-06-01T01:08:06.019Z,952
2016-06-01T01:08:15.831Z,952
2016-06-01T01:08:26.144Z,952
2016-06-01T01:08:36.690Z,952
2016-06-01T01:08:46.690Z,952
2016-06-01T01:08:55.865Z,952
2016-06-01T01:09:06.006Z,952.1
2016-06-01T01:09:16.568Z,952.1
2016-06-01T01:09:26.209Z,952.1
2016-06-01T01:09:36.615Z,952.1
2016-06-01T01:09:46.131Z,952
2016-06-01T01:09:56.102Z,952.1
2016-06-01T01:10:05.992Z,952.1
2016-06-01T01:10:16.102Z,952.1
2016-06-01T01:10:26.133Z,952.1
2016-06-01T01:10:36.117Z,952.2
2016-06-01T01:10:46.117Z,952
2016-06-01T01:10:55.948Z,952.1
2016-06-01T01:11:06.105Z,952
2016-06-01T01:11:16.105Z,952.1
2016-06-01T01:11:26.105Z,952.1
2016-06-01T01:11:35.652Z,952.1
2016-06-01T01:11:46.105Z,952.1
2016-06-01T01:11:55.936Z,952.1
2016-06-01T01:12:06.076Z,952.1
2016-06-01T01:12:16.092Z,952.2
2016-06-01T01:12:25.951Z,952.2
2016-06-01T01:12:35.920Z,952.2
2016-06-01T01:12:45.780Z,952.3
2016-06-01T01:12:55.938Z,952.2
2016-06-01T01:13:05.938Z,952.2
2016-06-01T01:13:15.922Z,952.2
2016-06-01T01:13:26.078Z,952.3
2016-06-01T01:13:35.907Z,952.3
2016-06-01T01:13:45.610Z,952.3
2016-06-01T01:13:56.081Z,952.2
2016-06-01T01:14:05.894Z,952.4
2016-06-01T01:14:16.050Z,952.4
2016-06-01T01:14:26.066Z,952.3
2016-06-01T01:14:36.050Z,952.3
2016-06-01T01:14:45.597Z,952.3
2016-06-01T01:14:55.913Z,952.4
2016-06-01T01:15:06.053Z,952.3
2016-06-01T01:15:15.913Z,952.3
2016-06-01T01:15:26.069Z,952.3
2016-06-01T01:15:36.038Z,952.5
2016-06-01T01:15:46.053Z,952.5
2016-06-01T01:15:56.056Z,952.4
2016-06-01T01:16:05.900Z,952.4
2016-06-01T01:16:15.900Z,952.4
2016-06-01T01:16:25.884Z,952.3
2016-06-01T01:16:35.884Z,952.4
2016-06-01T01:16:45.884Z,952.4
2016-06-01T01:16:56.027Z,952.4
2016-06-01T01:17:05.574Z,952.4
2016-06-01T01:17:15.871Z,952.3
2016-06-01T01:17:26.027Z,952.4
2016-06-01T01:17:36.027Z,952.4
2016-06-01T01:17:46.011Z,952.4
2016-06-01T01:17:56.077Z,952.4
2016-06-01T01:18:05.874Z,952.4
2016-06-01T01:18:15.702Z,952.4
2016-06-01T01:18:25.717Z,952.4
2016-06-01T01:18:35.999Z,952.4
2016-06-01T01:18:45.842Z,952.3
2016-06-01T01:18:56.001Z,952.4
2016-06-01T01:19:06.001Z,952.4
2016-06-01T01:19:15.844Z,952.4
2016-06-01T01:19:25.860Z,952.4
2016-06-01T01:19:35.985Z,952.4
2016-06-01T01:19:45.985Z,952.5
2016-06-01T01:19:55.972Z,952.5
2016-06-01T01:20:05.988Z,952.5
2016-06-01T01:20:15.972Z,952.5
2016-06-01T01:20:25.972Z,952.5
2016-06-01T01:20:35.972Z,952.5
2016-06-01T01:20:45.957Z,952.5
2016-06-01T01:20:55.679Z,952.4
2016-06-01T01:21:05.960Z,952.5
2016-06-01T01:21:15.960Z,952.5
2016-06-01T01:21:25.975Z,952.5
2016-06-01T01:21:35.804Z,952.5
2016-06-01T01:21:45.960Z,952.5
2016-06-01T01:21:55.807Z,952.4
2016-06-01T01:22:05.963Z,952.4
2016-06-01T01:22:15.947Z,952.4
2016-06-01T01:22:25.791Z,952.5
2016-06-01T01:22:35.963Z,952.4
2016-06-01T01:22:45.807Z,952.5
2016-06-01T01:22:55.934Z,952.4
2016-06-01T01:23:05.965Z,952.5
2016-06-01T01:23:15.949Z,952.4
2016-06-01T01:23:25.512Z,952.4
2016-06-01T01:23:36.496Z,952.5
2016-06-01T01:23:46.355Z,952.4
2016-06-01T01:23:56.812Z,952.4
2016-06-01T01:24:06.593Z,952.4
2016-06-01T01:24:15.671Z,952.5
2016-06-01T01:24:25.483Z,952.4
2016-06-01T01:24:35.499Z,952.4
2016-06-01T01:24:45.765Z,952.4
2016-06-01T01:24:55.768Z,952.4
2016-06-01T01:25:05.783Z,952.4
2016-06-01T01:25:15.752Z,952.4
2016-06-01T01:25:25.611Z,952.5
2016-06-01T01:25:35.799Z,952.4
2016-06-01T01:25:45.908Z,952.5
2016-06-01T01:25:55.895Z,952.5
2016-06-01T01:26:05.770Z,952.4
2016-06-01T01:26:15.738Z,952.4
2016-06-01T01:26:25.754Z,952.5
2016-06-01T01:26:35.910Z,952.5
2016-06-01T01:26:45.738Z,952.5
2016-06-01T01:26:55.898Z,952.5
2016-06-01T01:27:05.913Z,952.4
2016-06-01T01:27:15.726Z,952.5
2016-06-01T01:27:25.882Z,952.5
2016-06-01T01:27:35.913Z,952.5
2016-06-01T01:27:45.866Z,952.6
2016-06-01T01:27:55.869Z,952.5
2016-06-01T01:28:05.729Z,952.5
2016-06-01T01:28:15.729Z,952.5
2016-06-01T01:28:25.869Z,952.5
2016-06-01T01:28:35.869Z,952.5
2016-06-01T01:28:45.729Z,952.5
2016-06-01T01:28:55.716Z,952.5
2016-06-01T01:29:05.872Z,952.5
2016-06-01T01:29:15.857Z,952.5
2016-06-01T01:29:25.841Z,952.5
2016-06-01T01:29:35.701Z,952.6
2016-06-01T01:29:45.841Z,952.4
2016-06-01T01:29:55.843Z,952.5
2016-06-01T01:30:05.703Z,952.4
2016-06-01T01:30:15.828Z,952.5
2016-06-01T01:30:25.843Z,952.5
2016-06-01T01:30:35.828Z,952.5
2016-06-01T01:30:45.562Z,952.5
2016-06-01T01:30:55.689Z,952.5
2016-06-01T01:31:05.830Z,952.4
2016-06-01T01:31:15.861Z,952.6
2016-06-01T01:31:25.830Z,952.5
2016-06-01T01:31:35.814Z,952.5
2016-06-01T01:31:45.705Z,952.5
2016-06-01T01:31:55.833Z,952.5
2016-06-01T01:32:05.536Z,952.5
2016-06-01T01:32:15.661Z,952.5
2016-06-01T01:32:25.661Z,952.5
2016-06-01T01:32:35.645Z,952.5
2016-06-01T01:32:45.801Z,952.5
2016-06-01T01:32:55.648Z,952.5
2016-06-01T01:33:05.664Z,952.5
2016-06-01T01:33:15.507Z,952.4
2016-06-01T01:33:25.804Z,952.4
2016-06-01T01:33:35.789Z,952.5
2016-06-01T01:33:45.804Z,952.5
2016-06-01T01:33:55.807Z,952.5
2016-06-01T01:34:05.651Z,952.5
2016-06-01T01:34:15.792Z,952.5
2016-06-01T01:34:25.792Z,952.5
2016-06-01T01:34:35.776Z,952.4
2016-06-01T01:34:45.792Z,952.5
2016-06-01T01:34:55.622Z,952.5
2016-06-01T01:35:05.762Z,952.6
2016-06-01T01:35:15.809Z,952.6
2016-06-01T01:35:25.778Z,952.6
2016-06-01T01:35:35.466Z,952.6
2016-06-01T01:35:45.778Z,952.5
2016-06-01T01:35:55.781Z,952.5
2016-06-01T01:36:05.750Z,952.5
2016-06-01T01:36:15.781Z,952.6
2016-06-01T01:36:25.765Z,952.5
2016-06-01T01:36:35.594Z,952.6
2016-06-01T01:36:45.609Z,952.5
2016-06-01T01:36:55.597Z,952.5
2016-06-01T01:37:05.768Z,952.6
2016-06-01T01:37:15.753Z,952.5
2016-06-01T01:37:25.753Z,952.6
2016-06-01T01:37:35.753Z,952.6
2016-06-01T01:37:45.628Z,952.6
2016-06-01T01:37:55.600Z,952.5
2016-06-01T01:38:05.740Z,952.6
2016-06-01T01:38:15.584Z,952.6
2016-06-01T01:38:26.115Z,952.6
2016-06-01T01:38:35.896Z,952.5
2016-06-01T01:38:45.756Z,952.6
2016-06-01T01:38:55.461Z,952.6
2016-06-01T01:39:05.445Z,952.5
2016-06-01T01:39:15.852Z,952.7
2016-06-01T01:39:25.742Z,952.6
2016-06-01T01:39:35.914Z,952.6
2016-06-01T01:39:45.711Z,952.7
2016-06-01T01:39:55.558Z,952.5
2016-06-01T01:40:05.698Z,952.7
2016-06-01T01:40:15.542Z,952.6
2016-06-01T01:40:25.714Z,952.6
2016-06-01T01:40:35.698Z,952.6
2016-06-01T01:40:45.714Z,952.5
2016-06-01T01:40:55.716Z,952.6
2016-06-01T01:41:05.685Z,952.5
2016-06-01T01:41:15.700Z,952.6
2016-06-01T01:41:25.700Z,952.6
2016-06-01T01:41:35.685Z,952.5
2016-06-01T01:41:45.669Z,952.5
2016-06-01T01:41:55.688Z,952.5
2016-06-01T01:42:05.531Z,952.5
2016-06-01T01:42:15.672Z,952.4
2016-06-01T01:42:25.688Z,952.5
2016-06-01T01:42:35.672Z,952.4
2016-06-01T01:42:45.719Z,952.5
2016-06-01T01:42:55.675Z,952.5
2016-06-01T01:43:05.503Z,952.5
2016-06-01T01:43:15.519Z,952.5
2016-06-01T01:43:25.675Z,952.4
2016-06-01T01:43:35.503Z,952.4
2016-06-01T01:43:45.659Z,952.4
2016-06-01T01:43:55.662Z,952.5
2016-06-01T01:44:05.506Z,952.5
2016-06-01T01:44:15.662Z,952.5
2016-06-01T01:44:25.647Z,952.4
2016-06-01T01:44:35.647Z,952.5
2016-06-01T01:44:45.491Z,952.5
2016-06-01T01:44:55.649Z,952.5
2016-06-01T01:45:05.649Z,952.4
2016-06-01T01:45:15.493Z,952.5
2016-06-01T01:45:25.649Z,952.4
2016-06-01T01:45:35.649Z,952.5
2016-06-01T01:45:45.649Z,952.5
2016-06-01T01:45:55.324Z,952.4
2016-06-01T01:46:05.636Z,952.5
2016-06-01T01:46:15.621Z,952.4
2016-06-01T01:46:25.621Z,952.5
2016-06-01T01:46:35.621Z,952.5
2016-06-01T01:46:45.464Z,952.5
2016-06-01T01:46:55.624Z,952.5
2016-06-01T01:47:05.483Z,952.5
2016-06-01T01:47:15.608Z,952.5
2016-06-01T01:47:25.592Z,952.5
2016-06-01T01:47:35.624Z,952.5
2016-06-01T01:47:45.467Z,952.4
2016-06-01T01:47:55.595Z,952.5
2016-06-01T01:48:05.455Z,952.5
2016-06-01T01:48:15.580Z,952.5
2016-06-01T01:48:25.595Z,952.5
2016-06-01T01:48:35.611Z,952.4
2016-06-01T01:48:45.611Z,952.6
2016-06-01T01:48:55.597Z,952.5
2016-06-01T01:49:05.597Z,952.5
2016-06-01T01:49:15.597Z,952.6
2016-06-01T01:49:25.441Z,952.5
2016-06-01T01:49:35.597Z,952.5
2016-06-01T01:49:45.582Z,952.5
2016-06-01T01:49:55.585Z,952.5
2016-06-01T01:50:05.303Z,952.5
2016-06-01T01:50:15.272Z,952.5
2016-06-01T01:50:25.569Z,952.6
2016-06-01T01:50:35.585Z,952.6
2016-06-01T01:50:45.553Z,952.6
2016-06-01T01:50:55.275Z,952.5
2016-06-01T01:51:05.431Z,952.5
2016-06-01T01:51:15.541Z,952.7
2016-06-01T01:51:25.572Z,952.7
2016-06-01T01:51:35.556Z,952.7
2016-06-01T01:51:44.963Z,952.7
2016-06-01T01:51:55.527Z,952.6
2016-06-01T01:52:05.418Z,952.6
2016-06-01T01:52:15.230Z,952.7
2016-06-01T01:52:25.558Z,952.6
2016-06-01T01:52:35.543Z,952.7
2016-06-01T01:52:45.543Z,952.6
2016-06-01T01:52:55.390Z,952.6
2016-06-01T01:53:05.390Z,952.7
2016-06-01T01:53:15.233Z,952.6
2016-06-01T01:53:25.890Z,952.7
2016-06-01T01:53:37.202Z,952.7
2016-06-01T01:53:46.296Z,952.7
2016-06-01T01:53:56.220Z,952.7
2016-06-01T01:54:05.188Z,952.7
2016-06-01T01:54:15.610Z,952.7
2016-06-01T01:54:25.267Z,952.7
2016-06-01T01:54:35.720Z,952.7
2016-06-01T01:54:45.657Z,952.7
2016-06-01T01:54:55.504Z,952.8
2016-06-01T01:55:05.395Z,952.8
2016-06-01T01:55:15.504Z,952.7
2016-06-01T01:55:25.488Z,952.7
2016-06-01T01:55:35.504Z,952.9
2016-06-01T01:55:45.191Z,952.8
2016-06-01T01:55:55.491Z,952.9
2016-06-01T01:56:05.507Z,952.8
2016-06-01T01:56:15.491Z,952.9
2016-06-01T01:56:25.491Z,952.8
2016-06-01T01:56:35.335Z,952.9
2016-06-01T01:56:45.523Z,952.9
2016-06-01T01:56:55.479Z,952.9
2016-06-01T01:57:05.322Z,953
2016-06-01T01:57:15.354Z,953
2016-06-01T01:57:25.479Z,952.9
2016-06-01T01:57:35.322Z,952.9
2016-06-01T01:57:45.479Z,952.9
2016-06-01T01:57:55.309Z,953
2016-06-01T01:58:05.324Z,952.9
2016-06-01T01:58:15.465Z,953
2016-06-01T01:58:25.012Z,952.9
2016-06-01T01:58:35.309Z,953.1
2016-06-01T01:58:45.481Z,952.9
2016-06-01T01:58:55.296Z,953
2016-06-01T01:59:05.312Z,953
2016-06-01T01:59:15.452Z,953
2016-06-01T01:59:25.468Z,953
2016-06-01T01:59:35.140Z,953.1
2016-06-01T01:59:45.452Z,953
2016-06-01T01:59:55.143Z,953
2016-06-01T02:00:05.424Z,953
2016-06-01T02:00:15.440Z,953.1
2016-06-01T02:00:25.424Z,953.1
2016-06-01T02:00:35.284Z,953.1
2016-06-01T02:00:45.284Z,953.1
2016-06-01T02:00:55.426Z,953.1
2016-06-01T02:01:05.457Z,953.1
2016-06-01T02:01:15.426Z,953.2
2016-06-01T02:01:25.411Z,953.2
2016-06-01T02:01:35.411Z,953.1
2016-06-01T02:01:45.254Z,953.2
2016-06-01T02:01:55.429Z,953.2
2016-06-01T02:02:05.414Z,953.2
2016-06-01T02:02:15.414Z,953.2
2016-06-01T02:02:25.242Z,953.2
2016-06-01T02:02:35.242Z,953.2
2016-06-01T02:02:45.414Z,953.1
2016-06-01T02:02:55.244Z,953.2
2016-06-01T02:03:05.400Z,953.2
2016-06-01T02:03:15.384Z,953.2
2016-06-01T02:03:25.384Z,953.3
2016-06-01T02:03:35.384Z,953.2
2016-06-01T02:03:45.087Z,953.3
2016-06-01T02:03:55.420Z,953.4
2016-06-01T02:04:05.263Z,953.2
2016-06-01T02:04:15.373Z,953.3
2016-06-01T02:04:25.388Z,953.3
2016-06-01T02:04:35.357Z,953.3
2016-06-01T02:04:45.388Z,953.3
2016-06-01T02:04:55.218Z,953.3
2016-06-01T02:05:05.375Z,953.2
2016-06-01T02:05:15.359Z,953.3
2016-06-01T02:05:25.375Z,953.3
2016-06-01T02:05:35.203Z,953.3
2016-06-01T02:05:45.359Z,953.4
2016-06-01T02:05:55.206Z,953.3
2016-06-01T02:06:05.346Z,953.4
2016-06-01T02:06:15.206Z,953.3
2016-06-01T02:06:25.393Z,953.4
2016-06-01T02:06:35.346Z,953.4
2016-06-01T02:06:45.190Z,953.5
2016-06-01T02:06:55.349Z,953.4
2016-06-01T02:07:05.334Z,953.5
2016-06-01T02:07:15.037Z,953.4
2016-06-01T02:07:25.365Z,953.4
2016-06-01T02:07:35.318Z,953.5
2016-06-01T02:07:45.349Z,953.4
2016-06-01T02:07:55.351Z,953.5
2016-06-01T02:08:05.336Z,953.4
2016-06-01T02:08:15.320Z,953.5
2016-06-01T02:08:26.023Z,953.5
2016-06-01T02:08:36.117Z,953.4
2016-06-01T02:08:46.383Z,953.4
2016-06-01T02:08:55.197Z,953.5
2016-06-01T02:09:06.103Z,953.5
2016-06-01T02:09:16.650Z,953.5
2016-06-01T02:09:26.588Z,953.4
2016-06-01T02:09:35.885Z,953.5